<?xml version="1.0" encoding="UTF-8" standalone="no" ?>
<gpx xmlns="http://www.topografix.com/GPX/1/1" xmlns:xsi="http://www.w3.org/2001/XMLSchema-instance" xsi:schemaLocation="http://www.topografix.com/GPX/1/1 http://www.topografix.com/GPX/1/1/gpx.xsd" version="1.1" creator="VisuGPX - https://www.visugpx.com">
  <metadata>
    <name>2020-09-13 10:50 - Rando teillon</name>
    <desc><![CDATA[Rando : Le teillon, depuis Soleilhas, par le col des portes.
En boucle]]></desc>
  </metadata>
  <wpt lat="43.85524" lon="6.65059">
    <ele>1136.95</ele>
    <name><![CDATA[0000266]]></name>
    <type><![CDATA[Point de départ]]></type>
  </wpt>
  <wpt lat="43.85547" lon="6.65074">
    <ele>1148.18</ele>
    <name><![CDATA[0000267]]></name>
    <desc><![CDATA[<p><br /><h3>Nom: Segment: 1</h3><br />Heure de départ: 10:50 13 sept. 2020<br/>Heure d'arrivée: 18:07 13 sept. 2020<br/>Distance: 12,2km (07:17)<br/>Temps déplacement: 04:14<br/>Vitesse moyenne: 1,67 km/h<br/>Vitesse moyenne mouv.: 2,88 km/h<br/>Vitesse Max.: 6,55 km/h<br/>Altitude minimale: 1116 m<br/>Altitude maximale: 1879 m<br/>Vitesse de montée: 167,3 m/h<br/>Vitesse de descente: -294 m/h<br/>Gain d'altitude: 773 m<br/>Perte d'altitude: -761 m<br/>Temps de montée: 04:37<br/>Temps de descente: 02:35<br/></p>]]></desc>
    <type><![CDATA[Point d'arrivée]]></type>
  </wpt>
  <trk>
    <name><![CDATA[2020-09-13 10:50 - Rando teillon]]></name>
    <desc><![CDATA[<p>Heure de départ: 10:50 13 sept. 2020<br/>Heure d'arrivée: 18:07 13 sept. 2020<br/>Distance: 12,2 km (07:17)<br/>Temps déplacement: 04:14<br/>Vitesse moyenne: 1,67 km/h<br/>Vitesse moyenne mouv.: 2,88 km/h<br/>Vitesse Max.: 6,55 km/h<br/>Altitude minimale: 1116 m<br/>Altitude maximale: 1879 m<br/>Vitesse de montée: 167,3 m/h<br/>Vitesse de descente: -288,6 m/h<br/>Gain d'altitude: 773 m<br/>Perte d'altitude: -752 m<br/>Temps de montée: 04:37<br/>Temps de descente: 02:36<br/></p><hr align="center" width="480" style="height: 2px; width: 517px"/>]]></desc>
    <trkseg>
      <trkpt lat="43.85524" lon="6.65059">
        <ele>1136.95</ele>
        <time>2020-09-13T08:50:39Z</time>
      </trkpt>
      <trkpt lat="43.85542" lon="6.65062">
        <ele>1117.47</ele>
        <time>2020-09-13T08:50:50Z</time>
      </trkpt>
      <trkpt lat="43.85525" lon="6.65055">
        <ele>1122.5</ele>
        <time>2020-09-13T08:56:20Z</time>
      </trkpt>
      <trkpt lat="43.85543" lon="6.65047">
        <ele>1123.45</ele>
        <time>2020-09-13T08:58:01Z</time>
      </trkpt>
      <trkpt lat="43.8555" lon="6.65025">
        <ele>1124.49</ele>
        <time>2020-09-13T08:59:22Z</time>
      </trkpt>
      <trkpt lat="43.85548" lon="6.64999">
        <ele>1124.8</ele>
        <time>2020-09-13T08:59:41Z</time>
      </trkpt>
      <trkpt lat="43.85549" lon="6.64973">
        <ele>1125.04</ele>
        <time>2020-09-13T09:00:00Z</time>
      </trkpt>
      <trkpt lat="43.85541" lon="6.64949">
        <ele>1125.15</ele>
        <time>2020-09-13T09:00:14Z</time>
      </trkpt>
      <trkpt lat="43.85528" lon="6.64931">
        <ele>1125.22</ele>
        <time>2020-09-13T09:00:27Z</time>
      </trkpt>
      <trkpt lat="43.85514" lon="6.64915">
        <ele>1125.34</ele>
        <time>2020-09-13T09:00:44Z</time>
      </trkpt>
      <trkpt lat="43.85502" lon="6.64896">
        <ele>1125.49</ele>
        <time>2020-09-13T09:01:10Z</time>
      </trkpt>
      <trkpt lat="43.85489" lon="6.64877">
        <ele>1125.58</ele>
        <time>2020-09-13T09:01:25Z</time>
      </trkpt>
      <trkpt lat="43.85471" lon="6.64871">
        <ele>1125.67</ele>
        <time>2020-09-13T09:01:40Z</time>
      </trkpt>
      <trkpt lat="43.85454" lon="6.64862">
        <ele>1125.82</ele>
        <time>2020-09-13T09:02:01Z</time>
      </trkpt>
      <trkpt lat="43.85438" lon="6.6485">
        <ele>1125.9</ele>
        <time>2020-09-13T09:02:18Z</time>
      </trkpt>
      <trkpt lat="43.85422" lon="6.64836">
        <ele>1125.97</ele>
        <time>2020-09-13T09:02:37Z</time>
      </trkpt>
      <trkpt lat="43.85406" lon="6.64824">
        <ele>1126.02</ele>
        <time>2020-09-13T09:02:51Z</time>
      </trkpt>
      <trkpt lat="43.85391" lon="6.64809">
        <ele>1126.05</ele>
        <time>2020-09-13T09:03:10Z</time>
      </trkpt>
      <trkpt lat="43.85378" lon="6.64792">
        <ele>1126.03</ele>
        <time>2020-09-13T09:03:35Z</time>
      </trkpt>
      <trkpt lat="43.85365" lon="6.64773">
        <ele>1126</ele>
        <time>2020-09-13T09:03:59Z</time>
      </trkpt>
      <trkpt lat="43.85354" lon="6.64754">
        <ele>1125.94</ele>
        <time>2020-09-13T09:04:18Z</time>
      </trkpt>
      <trkpt lat="43.8534" lon="6.64739">
        <ele>1125.82</ele>
        <time>2020-09-13T09:04:43Z</time>
      </trkpt>
      <trkpt lat="43.85327" lon="6.6472">
        <ele>1125.7</ele>
        <time>2020-09-13T09:04:58Z</time>
      </trkpt>
      <trkpt lat="43.8531" lon="6.64706">
        <ele>1125.59</ele>
        <time>2020-09-13T09:05:14Z</time>
      </trkpt>
      <trkpt lat="43.85297" lon="6.64688">
        <ele>1125.49</ele>
        <time>2020-09-13T09:05:30Z</time>
      </trkpt>
      <trkpt lat="43.8528" lon="6.64675">
        <ele>1125.39</ele>
        <time>2020-09-13T09:05:45Z</time>
      </trkpt>
      <trkpt lat="43.85262" lon="6.64668">
        <ele>1125.3</ele>
        <time>2020-09-13T09:05:58Z</time>
      </trkpt>
      <trkpt lat="43.85245" lon="6.64676">
        <ele>1125.15</ele>
        <time>2020-09-13T09:06:26Z</time>
      </trkpt>
      <trkpt lat="43.85227" lon="6.6468">
        <ele>1125.04</ele>
        <time>2020-09-13T09:06:42Z</time>
      </trkpt>
      <trkpt lat="43.85208" lon="6.64684">
        <ele>1124.95</ele>
        <time>2020-09-13T09:06:57Z</time>
      </trkpt>
      <trkpt lat="43.85191" lon="6.64689">
        <ele>1124.88</ele>
        <time>2020-09-13T09:07:13Z</time>
      </trkpt>
      <trkpt lat="43.85178" lon="6.6467">
        <ele>1124.76</ele>
        <time>2020-09-13T09:07:51Z</time>
      </trkpt>
      <trkpt lat="43.8516" lon="6.64666">
        <ele>1124.68</ele>
        <time>2020-09-13T09:08:05Z</time>
      </trkpt>
      <trkpt lat="43.85141" lon="6.64658">
        <ele>1124.61</ele>
        <time>2020-09-13T09:08:17Z</time>
      </trkpt>
      <trkpt lat="43.85126" lon="6.64644">
        <ele>1124.53</ele>
        <time>2020-09-13T09:08:31Z</time>
      </trkpt>
      <trkpt lat="43.85112" lon="6.64625">
        <ele>1124.48</ele>
        <time>2020-09-13T09:08:47Z</time>
      </trkpt>
      <trkpt lat="43.85094" lon="6.64625">
        <ele>1124.44</ele>
        <time>2020-09-13T09:09:04Z</time>
      </trkpt>
      <trkpt lat="43.85075" lon="6.64619">
        <ele>1124.38</ele>
        <time>2020-09-13T09:09:19Z</time>
      </trkpt>
      <trkpt lat="43.85058" lon="6.64628">
        <ele>1124.29</ele>
        <time>2020-09-13T09:09:34Z</time>
      </trkpt>
      <trkpt lat="43.8504" lon="6.64621">
        <ele>1124.19</ele>
        <time>2020-09-13T09:09:49Z</time>
      </trkpt>
      <trkpt lat="43.85023" lon="6.64611">
        <ele>1124.06</ele>
        <time>2020-09-13T09:10:05Z</time>
      </trkpt>
      <trkpt lat="43.85005" lon="6.64603">
        <ele>1123.91</ele>
        <time>2020-09-13T09:10:22Z</time>
      </trkpt>
      <trkpt lat="43.84991" lon="6.64588">
        <ele>1123.75</ele>
        <time>2020-09-13T09:10:37Z</time>
      </trkpt>
      <trkpt lat="43.84975" lon="6.64574">
        <ele>1123.57</ele>
        <time>2020-09-13T09:10:52Z</time>
      </trkpt>
      <trkpt lat="43.84962" lon="6.64556">
        <ele>1123.37</ele>
        <time>2020-09-13T09:11:07Z</time>
      </trkpt>
      <trkpt lat="43.84949" lon="6.64537">
        <ele>1123.17</ele>
        <time>2020-09-13T09:11:24Z</time>
      </trkpt>
      <trkpt lat="43.84937" lon="6.64517">
        <ele>1122.97</ele>
        <time>2020-09-13T09:11:41Z</time>
      </trkpt>
      <trkpt lat="43.84927" lon="6.64495">
        <ele>1122.76</ele>
        <time>2020-09-13T09:11:57Z</time>
      </trkpt>
      <trkpt lat="43.84918" lon="6.64473">
        <ele>1122.57</ele>
        <time>2020-09-13T09:12:13Z</time>
      </trkpt>
      <trkpt lat="43.84907" lon="6.64452">
        <ele>1122.08</ele>
        <time>2020-09-13T09:13:13Z</time>
      </trkpt>
      <trkpt lat="43.84902" lon="6.64427">
        <ele>1121.81</ele>
        <time>2020-09-13T09:13:29Z</time>
      </trkpt>
      <trkpt lat="43.84898" lon="6.64402">
        <ele>1121.61</ele>
        <time>2020-09-13T09:13:44Z</time>
      </trkpt>
      <trkpt lat="43.84898" lon="6.64375">
        <ele>1121.46</ele>
        <time>2020-09-13T09:13:57Z</time>
      </trkpt>
      <trkpt lat="43.84898" lon="6.64349">
        <ele>1121.28</ele>
        <time>2020-09-13T09:14:12Z</time>
      </trkpt>
      <trkpt lat="43.84896" lon="6.64323">
        <ele>1121.11</ele>
        <time>2020-09-13T09:14:26Z</time>
      </trkpt>
      <trkpt lat="43.84892" lon="6.64298">
        <ele>1120.91</ele>
        <time>2020-09-13T09:14:41Z</time>
      </trkpt>
      <trkpt lat="43.84886" lon="6.64274">
        <ele>1120.68</ele>
        <time>2020-09-13T09:14:58Z</time>
      </trkpt>
      <trkpt lat="43.84882" lon="6.64248">
        <ele>1120.51</ele>
        <time>2020-09-13T09:15:14Z</time>
      </trkpt>
      <trkpt lat="43.84882" lon="6.64222">
        <ele>1120.41</ele>
        <time>2020-09-13T09:15:29Z</time>
      </trkpt>
      <trkpt lat="43.84884" lon="6.64197">
        <ele>1120.32</ele>
        <time>2020-09-13T09:15:42Z</time>
      </trkpt>
      <trkpt lat="43.84883" lon="6.64171">
        <ele>1120.2</ele>
        <time>2020-09-13T09:15:57Z</time>
      </trkpt>
      <trkpt lat="43.84878" lon="6.64146">
        <ele>1120.05</ele>
        <time>2020-09-13T09:16:13Z</time>
      </trkpt>
      <trkpt lat="43.84863" lon="6.64129">
        <ele>1119.87</ele>
        <time>2020-09-13T09:16:31Z</time>
      </trkpt>
      <trkpt lat="43.84845" lon="6.64124">
        <ele>1119.7</ele>
        <time>2020-09-13T09:16:46Z</time>
      </trkpt>
      <trkpt lat="43.84826" lon="6.64121">
        <ele>1119.51</ele>
        <time>2020-09-13T09:17:01Z</time>
      </trkpt>
      <trkpt lat="43.84807" lon="6.64123">
        <ele>1119.27</ele>
        <time>2020-09-13T09:17:19Z</time>
      </trkpt>
      <trkpt lat="43.84791" lon="6.64132">
        <ele>1119.1</ele>
        <time>2020-09-13T09:17:36Z</time>
      </trkpt>
      <trkpt lat="43.84773" lon="6.64124">
        <ele>1118.91</ele>
        <time>2020-09-13T09:17:56Z</time>
      </trkpt>
      <trkpt lat="43.84758" lon="6.6411">
        <ele>1118.69</ele>
        <time>2020-09-13T09:18:18Z</time>
      </trkpt>
      <trkpt lat="43.84742" lon="6.64096">
        <ele>1118.61</ele>
        <time>2020-09-13T09:18:36Z</time>
      </trkpt>
      <trkpt lat="43.84729" lon="6.64079">
        <ele>1118.62</ele>
        <time>2020-09-13T09:18:58Z</time>
      </trkpt>
      <trkpt lat="43.84721" lon="6.64057">
        <ele>1118.62</ele>
        <time>2020-09-13T09:19:14Z</time>
      </trkpt>
      <trkpt lat="43.84714" lon="6.64032">
        <ele>1118.57</ele>
        <time>2020-09-13T09:19:30Z</time>
      </trkpt>
      <trkpt lat="43.84705" lon="6.6401">
        <ele>1118.47</ele>
        <time>2020-09-13T09:19:45Z</time>
      </trkpt>
      <trkpt lat="43.84695" lon="6.63987">
        <ele>1118.29</ele>
        <time>2020-09-13T09:20:01Z</time>
      </trkpt>
      <trkpt lat="43.84688" lon="6.63963">
        <ele>1118.1</ele>
        <time>2020-09-13T09:20:16Z</time>
      </trkpt>
      <trkpt lat="43.84679" lon="6.63942">
        <ele>1117.88</ele>
        <time>2020-09-13T09:20:30Z</time>
      </trkpt>
      <trkpt lat="43.84667" lon="6.63921">
        <ele>1117.52</ele>
        <time>2020-09-13T09:20:54Z</time>
      </trkpt>
      <trkpt lat="43.84653" lon="6.63903">
        <ele>1117.35</ele>
        <time>2020-09-13T09:21:13Z</time>
      </trkpt>
      <trkpt lat="43.84638" lon="6.63889">
        <ele>1117.22</ele>
        <time>2020-09-13T09:21:35Z</time>
      </trkpt>
      <trkpt lat="43.8462" lon="6.63884">
        <ele>1117.09</ele>
        <time>2020-09-13T09:22:00Z</time>
      </trkpt>
      <trkpt lat="43.84603" lon="6.63876">
        <ele>1117</ele>
        <time>2020-09-13T09:22:17Z</time>
      </trkpt>
      <trkpt lat="43.84585" lon="6.63871">
        <ele>1116.98</ele>
        <time>2020-09-13T09:22:39Z</time>
      </trkpt>
      <trkpt lat="43.84565" lon="6.63868">
        <ele>1117.05</ele>
        <time>2020-09-13T09:23:00Z</time>
      </trkpt>
      <trkpt lat="43.84548" lon="6.63857">
        <ele>1117.19</ele>
        <time>2020-09-13T09:23:17Z</time>
      </trkpt>
      <trkpt lat="43.84532" lon="6.63846">
        <ele>1117.38</ele>
        <time>2020-09-13T09:23:32Z</time>
      </trkpt>
      <trkpt lat="43.84513" lon="6.63842">
        <ele>1117.64</ele>
        <time>2020-09-13T09:23:49Z</time>
      </trkpt>
      <trkpt lat="43.84495" lon="6.63836">
        <ele>1117.92</ele>
        <time>2020-09-13T09:24:06Z</time>
      </trkpt>
      <trkpt lat="43.84479" lon="6.63824">
        <ele>1118.3</ele>
        <time>2020-09-13T09:24:27Z</time>
      </trkpt>
      <trkpt lat="43.84462" lon="6.63814">
        <ele>1118.68</ele>
        <time>2020-09-13T09:24:43Z</time>
      </trkpt>
      <trkpt lat="43.84446" lon="6.638">
        <ele>1119.19</ele>
        <time>2020-09-13T09:25:04Z</time>
      </trkpt>
      <trkpt lat="43.84429" lon="6.63792">
        <ele>1119.65</ele>
        <time>2020-09-13T09:25:23Z</time>
      </trkpt>
      <trkpt lat="43.84413" lon="6.63779">
        <ele>1120.04</ele>
        <time>2020-09-13T09:25:43Z</time>
      </trkpt>
      <trkpt lat="43.84395" lon="6.63779">
        <ele>1120.34</ele>
        <time>2020-09-13T09:26:01Z</time>
      </trkpt>
      <trkpt lat="43.84377" lon="6.63774">
        <ele>1120.61</ele>
        <time>2020-09-13T09:26:19Z</time>
      </trkpt>
      <trkpt lat="43.84359" lon="6.63773">
        <ele>1121.12</ele>
        <time>2020-09-13T09:26:43Z</time>
      </trkpt>
      <trkpt lat="43.84346" lon="6.63752">
        <ele>1121.62</ele>
        <time>2020-09-13T09:27:00Z</time>
      </trkpt>
      <trkpt lat="43.84328" lon="6.63753">
        <ele>1122.78</ele>
        <time>2020-09-13T09:27:33Z</time>
      </trkpt>
      <trkpt lat="43.84326" lon="6.63728">
        <ele>1125.16</ele>
        <time>2020-09-13T09:28:29Z</time>
      </trkpt>
      <trkpt lat="43.84328" lon="6.63702">
        <ele>1127.56</ele>
        <time>2020-09-13T09:29:17Z</time>
      </trkpt>
      <trkpt lat="43.84329" lon="6.63676">
        <ele>1129</ele>
        <time>2020-09-13T09:29:39Z</time>
      </trkpt>
      <trkpt lat="43.84331" lon="6.63651">
        <ele>1130.29</ele>
        <time>2020-09-13T09:30:03Z</time>
      </trkpt>
      <trkpt lat="43.84315" lon="6.63637">
        <ele>1133.08</ele>
        <time>2020-09-13T09:31:51Z</time>
      </trkpt>
      <trkpt lat="43.84307" lon="6.63614">
        <ele>1133.46</ele>
        <time>2020-09-13T09:32:07Z</time>
      </trkpt>
      <trkpt lat="43.84303" lon="6.63589">
        <ele>1134.6</ele>
        <time>2020-09-13T09:32:59Z</time>
      </trkpt>
      <trkpt lat="43.84299" lon="6.63564">
        <ele>1135.13</ele>
        <time>2020-09-13T09:33:23Z</time>
      </trkpt>
      <trkpt lat="43.84286" lon="6.63546">
        <ele>1135.7</ele>
        <time>2020-09-13T09:33:45Z</time>
      </trkpt>
      <trkpt lat="43.84269" lon="6.63539">
        <ele>1137.15</ele>
        <time>2020-09-13T09:34:12Z</time>
      </trkpt>
      <trkpt lat="43.84273" lon="6.63513">
        <ele>1140.67</ele>
        <time>2020-09-13T09:34:57Z</time>
      </trkpt>
      <trkpt lat="43.84268" lon="6.63488">
        <ele>1143.2</ele>
        <time>2020-09-13T09:35:18Z</time>
      </trkpt>
      <trkpt lat="43.8425" lon="6.6349">
        <ele>1149.39</ele>
        <time>2020-09-13T09:36:10Z</time>
      </trkpt>
      <trkpt lat="43.84233" lon="6.6348">
        <ele>1158.84</ele>
        <time>2020-09-13T09:37:09Z</time>
      </trkpt>
      <trkpt lat="43.84215" lon="6.63483">
        <ele>1168.4</ele>
        <time>2020-09-13T09:38:03Z</time>
      </trkpt>
      <trkpt lat="43.84196" lon="6.63487">
        <ele>1172.47</ele>
        <time>2020-09-13T09:38:33Z</time>
      </trkpt>
      <trkpt lat="43.84177" lon="6.63487">
        <ele>1175.24</ele>
        <time>2020-09-13T09:38:53Z</time>
      </trkpt>
      <trkpt lat="43.84164" lon="6.63467">
        <ele>1180.7</ele>
        <time>2020-09-13T09:39:34Z</time>
      </trkpt>
      <trkpt lat="43.84167" lon="6.63442">
        <ele>1186.57</ele>
        <time>2020-09-13T09:40:05Z</time>
      </trkpt>
      <trkpt lat="43.84157" lon="6.63419">
        <ele>1192.2</ele>
        <time>2020-09-13T09:40:35Z</time>
      </trkpt>
      <trkpt lat="43.84146" lon="6.63399">
        <ele>1198.76</ele>
        <time>2020-09-13T09:41:17Z</time>
      </trkpt>
      <trkpt lat="43.84133" lon="6.63382">
        <ele>1203.82</ele>
        <time>2020-09-13T09:41:52Z</time>
      </trkpt>
      <trkpt lat="43.84123" lon="6.63361">
        <ele>1209.47</ele>
        <time>2020-09-13T09:42:30Z</time>
      </trkpt>
      <trkpt lat="43.84114" lon="6.63334">
        <ele>1214.1</ele>
        <time>2020-09-13T09:43:03Z</time>
      </trkpt>
      <trkpt lat="43.84096" lon="6.63339">
        <ele>1218.26</ele>
        <time>2020-09-13T09:43:32Z</time>
      </trkpt>
      <trkpt lat="43.84079" lon="6.63348">
        <ele>1224.96</ele>
        <time>2020-09-13T09:44:23Z</time>
      </trkpt>
      <trkpt lat="43.84074" lon="6.63323">
        <ele>1235.32</ele>
        <time>2020-09-13T09:45:30Z</time>
      </trkpt>
      <trkpt lat="43.84074" lon="6.63298">
        <ele>1242.57</ele>
        <time>2020-09-13T09:46:19Z</time>
      </trkpt>
      <trkpt lat="43.84073" lon="6.63273">
        <ele>1245.67</ele>
        <time>2020-09-13T09:46:40Z</time>
      </trkpt>
      <trkpt lat="43.84068" lon="6.63248">
        <ele>1249.39</ele>
        <time>2020-09-13T09:47:11Z</time>
      </trkpt>
      <trkpt lat="43.84053" lon="6.63233">
        <ele>1253.84</ele>
        <time>2020-09-13T09:47:47Z</time>
      </trkpt>
      <trkpt lat="43.84046" lon="6.6321">
        <ele>1259.4</ele>
        <time>2020-09-13T09:48:33Z</time>
      </trkpt>
      <trkpt lat="43.84034" lon="6.63191">
        <ele>1280.74</ele>
        <time>2020-09-13T09:52:42Z</time>
      </trkpt>
      <trkpt lat="43.84022" lon="6.63171">
        <ele>1285.03</ele>
        <time>2020-09-13T09:53:11Z</time>
      </trkpt>
      <trkpt lat="43.84015" lon="6.63147">
        <ele>1288.79</ele>
        <time>2020-09-13T09:53:54Z</time>
      </trkpt>
      <trkpt lat="43.84006" lon="6.63125">
        <ele>1291.2</ele>
        <time>2020-09-13T09:54:37Z</time>
      </trkpt>
      <trkpt lat="43.8399" lon="6.63113">
        <ele>1292.46</ele>
        <time>2020-09-13T09:55:07Z</time>
      </trkpt>
      <trkpt lat="43.83972" lon="6.63104">
        <ele>1293.55</ele>
        <time>2020-09-13T09:55:29Z</time>
      </trkpt>
      <trkpt lat="43.83963" lon="6.63082">
        <ele>1297.53</ele>
        <time>2020-09-13T09:56:52Z</time>
      </trkpt>
      <trkpt lat="43.83966" lon="6.63057">
        <ele>1300.14</ele>
        <time>2020-09-13T09:57:19Z</time>
      </trkpt>
      <trkpt lat="43.83972" lon="6.63033">
        <ele>1302.15</ele>
        <time>2020-09-13T09:57:43Z</time>
      </trkpt>
      <trkpt lat="43.83974" lon="6.63008">
        <ele>1303.54</ele>
        <time>2020-09-13T09:58:01Z</time>
      </trkpt>
      <trkpt lat="43.83973" lon="6.62983">
        <ele>1306.76</ele>
        <time>2020-09-13T09:58:39Z</time>
      </trkpt>
      <trkpt lat="43.83975" lon="6.62957">
        <ele>1308.65</ele>
        <time>2020-09-13T09:59:00Z</time>
      </trkpt>
      <trkpt lat="43.83966" lon="6.62933">
        <ele>1310.72</ele>
        <time>2020-09-13T09:59:19Z</time>
      </trkpt>
      <trkpt lat="43.83951" lon="6.62918">
        <ele>1313.69</ele>
        <time>2020-09-13T09:59:40Z</time>
      </trkpt>
      <trkpt lat="43.83932" lon="6.62912">
        <ele>1317.88</ele>
        <time>2020-09-13T10:00:12Z</time>
      </trkpt>
      <trkpt lat="43.83914" lon="6.62916">
        <ele>1331.71</ele>
        <time>2020-09-13T10:03:05Z</time>
      </trkpt>
      <trkpt lat="43.83898" lon="6.62926">
        <ele>1336.13</ele>
        <time>2020-09-13T10:03:32Z</time>
      </trkpt>
      <trkpt lat="43.8388" lon="6.6293">
        <ele>1340.44</ele>
        <time>2020-09-13T10:04:10Z</time>
      </trkpt>
      <trkpt lat="43.83863" lon="6.62938">
        <ele>1343.42</ele>
        <time>2020-09-13T10:05:00Z</time>
      </trkpt>
      <trkpt lat="43.83845" lon="6.62942">
        <ele>1346.4</ele>
        <time>2020-09-13T10:05:26Z</time>
      </trkpt>
      <trkpt lat="43.83831" lon="6.62927">
        <ele>1351.09</ele>
        <time>2020-09-13T10:06:27Z</time>
      </trkpt>
      <trkpt lat="43.83824" lon="6.62903">
        <ele>1352.49</ele>
        <time>2020-09-13T10:06:52Z</time>
      </trkpt>
      <trkpt lat="43.83806" lon="6.62913">
        <ele>1354.24</ele>
        <time>2020-09-13T10:07:30Z</time>
      </trkpt>
      <trkpt lat="43.83795" lon="6.62933">
        <ele>1356.22</ele>
        <time>2020-09-13T10:08:13Z</time>
      </trkpt>
      <trkpt lat="43.83778" lon="6.62943">
        <ele>1358.37</ele>
        <time>2020-09-13T10:08:49Z</time>
      </trkpt>
      <trkpt lat="43.83764" lon="6.62961">
        <ele>1361.01</ele>
        <time>2020-09-13T10:09:24Z</time>
      </trkpt>
      <trkpt lat="43.8375" lon="6.62978">
        <ele>1363.43</ele>
        <time>2020-09-13T10:09:49Z</time>
      </trkpt>
      <trkpt lat="43.83735" lon="6.62993">
        <ele>1366.32</ele>
        <time>2020-09-13T10:10:15Z</time>
      </trkpt>
      <trkpt lat="43.83722" lon="6.63009">
        <ele>1390.99</ele>
        <time>2020-09-13T10:14:32Z</time>
      </trkpt>
      <trkpt lat="43.83704" lon="6.63015">
        <ele>1396.82</ele>
        <time>2020-09-13T10:15:01Z</time>
      </trkpt>
      <trkpt lat="43.83687" lon="6.63005">
        <ele>1401.93</ele>
        <time>2020-09-13T10:15:27Z</time>
      </trkpt>
      <trkpt lat="43.8367" lon="6.62996">
        <ele>1404.61</ele>
        <time>2020-09-13T10:15:47Z</time>
      </trkpt>
      <trkpt lat="43.83652" lon="6.63003">
        <ele>1407.9</ele>
        <time>2020-09-13T10:16:24Z</time>
      </trkpt>
      <trkpt lat="43.83638" lon="6.63017">
        <ele>1409.38</ele>
        <time>2020-09-13T10:16:50Z</time>
      </trkpt>
      <trkpt lat="43.8362" lon="6.63028">
        <ele>1410.59</ele>
        <time>2020-09-13T10:17:14Z</time>
      </trkpt>
      <trkpt lat="43.83607" lon="6.6301">
        <ele>1411.8</ele>
        <time>2020-09-13T10:17:35Z</time>
      </trkpt>
      <trkpt lat="43.836" lon="6.62987">
        <ele>1413.68</ele>
        <time>2020-09-13T10:18:02Z</time>
      </trkpt>
      <trkpt lat="43.83585" lon="6.62971">
        <ele>1416.92</ele>
        <time>2020-09-13T10:18:53Z</time>
      </trkpt>
      <trkpt lat="43.83568" lon="6.62981">
        <ele>1418</ele>
        <time>2020-09-13T10:19:08Z</time>
      </trkpt>
      <trkpt lat="43.8355" lon="6.62986">
        <ele>1419.07</ele>
        <time>2020-09-13T10:19:26Z</time>
      </trkpt>
      <trkpt lat="43.83533" lon="6.62977">
        <ele>1420.13</ele>
        <time>2020-09-13T10:19:47Z</time>
      </trkpt>
      <trkpt lat="43.83516" lon="6.62965">
        <ele>1421.23</ele>
        <time>2020-09-13T10:20:10Z</time>
      </trkpt>
      <trkpt lat="43.83498" lon="6.62964">
        <ele>1422.08</ele>
        <time>2020-09-13T10:20:31Z</time>
      </trkpt>
      <trkpt lat="43.8348" lon="6.62962">
        <ele>1423.13</ele>
        <time>2020-09-13T10:21:00Z</time>
      </trkpt>
      <trkpt lat="43.83462" lon="6.62968">
        <ele>1424.02</ele>
        <time>2020-09-13T10:21:35Z</time>
      </trkpt>
      <trkpt lat="43.83443" lon="6.6297">
        <ele>1424.62</ele>
        <time>2020-09-13T10:21:57Z</time>
      </trkpt>
      <trkpt lat="43.83426" lon="6.62964">
        <ele>1425.93</ele>
        <time>2020-09-13T10:23:00Z</time>
      </trkpt>
      <trkpt lat="43.83423" lon="6.62939">
        <ele>1428.76</ele>
        <time>2020-09-13T10:24:03Z</time>
      </trkpt>
      <trkpt lat="43.83419" lon="6.62915">
        <ele>1430.25</ele>
        <time>2020-09-13T10:24:30Z</time>
      </trkpt>
      <trkpt lat="43.8341" lon="6.62894">
        <ele>1431.73</ele>
        <time>2020-09-13T10:25:01Z</time>
      </trkpt>
      <trkpt lat="43.83401" lon="6.62871">
        <ele>1432.9</ele>
        <time>2020-09-13T10:25:23Z</time>
      </trkpt>
      <trkpt lat="43.83404" lon="6.62847">
        <ele>1435.01</ele>
        <time>2020-09-13T10:26:05Z</time>
      </trkpt>
      <trkpt lat="43.83419" lon="6.62833">
        <ele>1440.41</ele>
        <time>2020-09-13T10:27:39Z</time>
      </trkpt>
      <trkpt lat="43.83436" lon="6.62823">
        <ele>1442</ele>
        <time>2020-09-13T10:28:01Z</time>
      </trkpt>
      <trkpt lat="43.83453" lon="6.62813">
        <ele>1443.83</ele>
        <time>2020-09-13T10:28:27Z</time>
      </trkpt>
      <trkpt lat="43.83468" lon="6.62798">
        <ele>1445.19</ele>
        <time>2020-09-13T10:28:49Z</time>
      </trkpt>
      <trkpt lat="43.83481" lon="6.62779">
        <ele>1447.33</ele>
        <time>2020-09-13T10:29:16Z</time>
      </trkpt>
      <trkpt lat="43.83494" lon="6.62762">
        <ele>1450.54</ele>
        <time>2020-09-13T10:29:50Z</time>
      </trkpt>
      <trkpt lat="43.83506" lon="6.62742">
        <ele>1453.58</ele>
        <time>2020-09-13T10:30:17Z</time>
      </trkpt>
      <trkpt lat="43.83517" lon="6.62722">
        <ele>1455.73</ele>
        <time>2020-09-13T10:30:41Z</time>
      </trkpt>
      <trkpt lat="43.83527" lon="6.627">
        <ele>1458.61</ele>
        <time>2020-09-13T10:31:00Z</time>
      </trkpt>
      <trkpt lat="43.83537" lon="6.62679">
        <ele>1461.6</ele>
        <time>2020-09-13T10:31:18Z</time>
      </trkpt>
      <trkpt lat="43.83541" lon="6.62653">
        <ele>1464.52</ele>
        <time>2020-09-13T10:31:40Z</time>
      </trkpt>
      <trkpt lat="43.83539" lon="6.62628">
        <ele>1479.2</ele>
        <time>2020-09-13T10:37:40Z</time>
      </trkpt>
      <trkpt lat="43.83545" lon="6.62604">
        <ele>1480.42</ele>
        <time>2020-09-13T10:38:03Z</time>
      </trkpt>
      <trkpt lat="43.83553" lon="6.6258">
        <ele>1481.48</ele>
        <time>2020-09-13T10:38:27Z</time>
      </trkpt>
      <trkpt lat="43.83553" lon="6.62555">
        <ele>1482.42</ele>
        <time>2020-09-13T10:38:51Z</time>
      </trkpt>
      <trkpt lat="43.83556" lon="6.62529">
        <ele>1483.15</ele>
        <time>2020-09-13T10:39:14Z</time>
      </trkpt>
      <trkpt lat="43.83561" lon="6.62504">
        <ele>1483.79</ele>
        <time>2020-09-13T10:39:36Z</time>
      </trkpt>
      <trkpt lat="43.8356" lon="6.62479">
        <ele>1484.47</ele>
        <time>2020-09-13T10:40:01Z</time>
      </trkpt>
      <trkpt lat="43.83562" lon="6.62453">
        <ele>1484.9</ele>
        <time>2020-09-13T10:40:18Z</time>
      </trkpt>
      <trkpt lat="43.83561" lon="6.62428">
        <ele>1485.67</ele>
        <time>2020-09-13T10:41:01Z</time>
      </trkpt>
      <trkpt lat="43.83571" lon="6.62406">
        <ele>1486.08</ele>
        <time>2020-09-13T10:41:21Z</time>
      </trkpt>
      <trkpt lat="43.83577" lon="6.62382">
        <ele>1486.39</ele>
        <time>2020-09-13T10:41:40Z</time>
      </trkpt>
      <trkpt lat="43.83581" lon="6.62357">
        <ele>1486.7</ele>
        <time>2020-09-13T10:42:00Z</time>
      </trkpt>
      <trkpt lat="43.83585" lon="6.62333">
        <ele>1487.02</ele>
        <time>2020-09-13T10:42:21Z</time>
      </trkpt>
      <trkpt lat="43.83593" lon="6.6231">
        <ele>1487.29</ele>
        <time>2020-09-13T10:42:43Z</time>
      </trkpt>
      <trkpt lat="43.83602" lon="6.62288">
        <ele>1487.48</ele>
        <time>2020-09-13T10:43:01Z</time>
      </trkpt>
      <trkpt lat="43.83611" lon="6.62265">
        <ele>1487.65</ele>
        <time>2020-09-13T10:43:19Z</time>
      </trkpt>
      <trkpt lat="43.83617" lon="6.6224">
        <ele>1488.2</ele>
        <time>2020-09-13T10:44:31Z</time>
      </trkpt>
      <trkpt lat="43.83626" lon="6.62218">
        <ele>1488.44</ele>
        <time>2020-09-13T10:44:52Z</time>
      </trkpt>
      <trkpt lat="43.8364" lon="6.622">
        <ele>1488.64</ele>
        <time>2020-09-13T10:45:10Z</time>
      </trkpt>
      <trkpt lat="43.83648" lon="6.62177">
        <ele>1488.87</ele>
        <time>2020-09-13T10:45:35Z</time>
      </trkpt>
      <trkpt lat="43.8366" lon="6.62158">
        <ele>1489.08</ele>
        <time>2020-09-13T10:45:58Z</time>
      </trkpt>
      <trkpt lat="43.83665" lon="6.62134">
        <ele>1489.34</ele>
        <time>2020-09-13T10:46:18Z</time>
      </trkpt>
      <trkpt lat="43.83667" lon="6.62108">
        <ele>1489.64</ele>
        <time>2020-09-13T10:46:37Z</time>
      </trkpt>
      <trkpt lat="43.83677" lon="6.62087">
        <ele>1490</ele>
        <time>2020-09-13T10:46:57Z</time>
      </trkpt>
      <trkpt lat="43.83689" lon="6.62068">
        <ele>1490.39</ele>
        <time>2020-09-13T10:47:17Z</time>
      </trkpt>
      <trkpt lat="43.837" lon="6.62047">
        <ele>1490.8</ele>
        <time>2020-09-13T10:47:40Z</time>
      </trkpt>
      <trkpt lat="43.83712" lon="6.62028">
        <ele>1491.24</ele>
        <time>2020-09-13T10:48:05Z</time>
      </trkpt>
      <trkpt lat="43.83725" lon="6.62009">
        <ele>1491.67</ele>
        <time>2020-09-13T10:48:31Z</time>
      </trkpt>
      <trkpt lat="43.83737" lon="6.61991">
        <ele>1492.1</ele>
        <time>2020-09-13T10:48:56Z</time>
      </trkpt>
      <trkpt lat="43.8375" lon="6.61972">
        <ele>1492.6</ele>
        <time>2020-09-13T10:49:24Z</time>
      </trkpt>
      <trkpt lat="43.83758" lon="6.61949">
        <ele>1493.35</ele>
        <time>2020-09-13T10:49:58Z</time>
      </trkpt>
      <trkpt lat="43.83774" lon="6.61936">
        <ele>1494.06</ele>
        <time>2020-09-13T10:50:25Z</time>
      </trkpt>
      <trkpt lat="43.83788" lon="6.6192">
        <ele>1494.79</ele>
        <time>2020-09-13T10:50:54Z</time>
      </trkpt>
      <trkpt lat="43.838" lon="6.61902">
        <ele>1497.81</ele>
        <time>2020-09-13T10:52:28Z</time>
      </trkpt>
      <trkpt lat="43.83814" lon="6.61884">
        <ele>1500.08</ele>
        <time>2020-09-13T10:53:27Z</time>
      </trkpt>
      <trkpt lat="43.8383" lon="6.61873">
        <ele>1504.6</ele>
        <time>2020-09-13T10:55:03Z</time>
      </trkpt>
      <trkpt lat="43.83845" lon="6.6186">
        <ele>1508.69</ele>
        <time>2020-09-13T10:56:34Z</time>
      </trkpt>
      <trkpt lat="43.83863" lon="6.61862">
        <ele>1511.3</ele>
        <time>2020-09-13T10:57:21Z</time>
      </trkpt>
      <trkpt lat="43.83881" lon="6.61857">
        <ele>1513.31</ele>
        <time>2020-09-13T10:57:57Z</time>
      </trkpt>
      <trkpt lat="43.83893" lon="6.61838">
        <ele>1515.85</ele>
        <time>2020-09-13T10:58:39Z</time>
      </trkpt>
      <trkpt lat="43.83909" lon="6.61824">
        <ele>1521.78</ele>
        <time>2020-09-13T10:59:56Z</time>
      </trkpt>
      <trkpt lat="43.83915" lon="6.618">
        <ele>1527.12</ele>
        <time>2020-09-13T11:00:36Z</time>
      </trkpt>
      <trkpt lat="43.83921" lon="6.61776">
        <ele>1534</ele>
        <time>2020-09-13T11:01:32Z</time>
      </trkpt>
      <trkpt lat="43.83926" lon="6.61752">
        <ele>1550.35</ele>
        <time>2020-09-13T11:03:09Z</time>
      </trkpt>
      <trkpt lat="43.83938" lon="6.61733">
        <ele>1558.4</ele>
        <time>2020-09-13T11:04:18Z</time>
      </trkpt>
      <trkpt lat="43.83938" lon="6.61706">
        <ele>1568.5</ele>
        <time>2020-09-13T11:09:55Z</time>
      </trkpt>
      <trkpt lat="43.83943" lon="6.61682">
        <ele>1571.24</ele>
        <time>2020-09-13T11:10:44Z</time>
      </trkpt>
      <trkpt lat="43.83942" lon="6.61657">
        <ele>1572.69</ele>
        <time>2020-09-13T11:12:05Z</time>
      </trkpt>
      <trkpt lat="43.83956" lon="6.61673">
        <ele>1573.44</ele>
        <time>2020-09-13T11:13:05Z</time>
      </trkpt>
      <trkpt lat="43.83973" lon="6.61664">
        <ele>1573.63</ele>
        <time>2020-09-13T11:13:27Z</time>
      </trkpt>
      <trkpt lat="43.83991" lon="6.61666">
        <ele>1574.13</ele>
        <time>2020-09-13T11:14:23Z</time>
      </trkpt>
      <trkpt lat="43.84001" lon="6.61645">
        <ele>1574.56</ele>
        <time>2020-09-13T11:15:16Z</time>
      </trkpt>
      <trkpt lat="43.84018" lon="6.61634">
        <ele>1575.94</ele>
        <time>2020-09-13T11:17:12Z</time>
      </trkpt>
      <trkpt lat="43.84033" lon="6.6162">
        <ele>1576.47</ele>
        <time>2020-09-13T11:17:45Z</time>
      </trkpt>
      <trkpt lat="43.84051" lon="6.61627">
        <ele>1577.39</ele>
        <time>2020-09-13T11:18:45Z</time>
      </trkpt>
      <trkpt lat="43.84067" lon="6.61638">
        <ele>1578.01</ele>
        <time>2020-09-13T11:19:20Z</time>
      </trkpt>
      <trkpt lat="43.84087" lon="6.61644">
        <ele>1578.35</ele>
        <time>2020-09-13T11:19:42Z</time>
      </trkpt>
      <trkpt lat="43.84104" lon="6.61633">
        <ele>1578.8</ele>
        <time>2020-09-13T11:20:15Z</time>
      </trkpt>
      <trkpt lat="43.8412" lon="6.61622">
        <ele>1579.28</ele>
        <time>2020-09-13T11:20:39Z</time>
      </trkpt>
      <trkpt lat="43.84137" lon="6.61612">
        <ele>1579.79</ele>
        <time>2020-09-13T11:21:00Z</time>
      </trkpt>
      <trkpt lat="43.84155" lon="6.61606">
        <ele>1580.76</ele>
        <time>2020-09-13T11:21:40Z</time>
      </trkpt>
      <trkpt lat="43.8417" lon="6.61593">
        <ele>1581.51</ele>
        <time>2020-09-13T11:22:05Z</time>
      </trkpt>
      <trkpt lat="43.8418" lon="6.61614">
        <ele>1583.89</ele>
        <time>2020-09-13T11:25:19Z</time>
      </trkpt>
      <trkpt lat="43.8419" lon="6.61594">
        <ele>1584.93</ele>
        <time>2020-09-13T11:25:42Z</time>
      </trkpt>
      <trkpt lat="43.84206" lon="6.61579">
        <ele>1585.87</ele>
        <time>2020-09-13T11:26:10Z</time>
      </trkpt>
      <trkpt lat="43.84221" lon="6.61563">
        <ele>1586.7</ele>
        <time>2020-09-13T11:26:49Z</time>
      </trkpt>
      <trkpt lat="43.84235" lon="6.6158">
        <ele>1589.63</ele>
        <time>2020-09-13T11:30:10Z</time>
      </trkpt>
      <trkpt lat="43.84239" lon="6.61604">
        <ele>1590.06</ele>
        <time>2020-09-13T11:30:26Z</time>
      </trkpt>
      <trkpt lat="43.84255" lon="6.61616">
        <ele>1590.67</ele>
        <time>2020-09-13T11:30:54Z</time>
      </trkpt>
      <trkpt lat="43.84273" lon="6.61611">
        <ele>1591.07</ele>
        <time>2020-09-13T11:31:22Z</time>
      </trkpt>
      <trkpt lat="43.84279" lon="6.61587">
        <ele>1591.64</ele>
        <time>2020-09-13T11:31:56Z</time>
      </trkpt>
      <trkpt lat="43.84295" lon="6.61573">
        <ele>1591.96</ele>
        <time>2020-09-13T11:32:14Z</time>
      </trkpt>
      <trkpt lat="43.84312" lon="6.61584">
        <ele>1592.64</ele>
        <time>2020-09-13T11:33:13Z</time>
      </trkpt>
      <trkpt lat="43.84322" lon="6.61605">
        <ele>1593.06</ele>
        <time>2020-09-13T11:34:01Z</time>
      </trkpt>
      <trkpt lat="43.84331" lon="6.61628">
        <ele>1593.23</ele>
        <time>2020-09-13T11:34:18Z</time>
      </trkpt>
      <trkpt lat="43.84343" lon="6.61648">
        <ele>1593.92</ele>
        <time>2020-09-13T11:35:51Z</time>
      </trkpt>
      <trkpt lat="43.84361" lon="6.61654">
        <ele>1594.39</ele>
        <time>2020-09-13T11:36:18Z</time>
      </trkpt>
      <trkpt lat="43.84361" lon="6.61627">
        <ele>1595.07</ele>
        <time>2020-09-13T11:36:52Z</time>
      </trkpt>
      <trkpt lat="43.84365" lon="6.61602">
        <ele>1595.76</ele>
        <time>2020-09-13T11:37:24Z</time>
      </trkpt>
      <trkpt lat="43.84365" lon="6.61577">
        <ele>1596.22</ele>
        <time>2020-09-13T11:37:44Z</time>
      </trkpt>
      <trkpt lat="43.84378" lon="6.61558">
        <ele>1596.94</ele>
        <time>2020-09-13T11:38:12Z</time>
      </trkpt>
      <trkpt lat="43.84376" lon="6.61533">
        <ele>1597.66</ele>
        <time>2020-09-13T11:38:36Z</time>
      </trkpt>
      <trkpt lat="43.84376" lon="6.61508">
        <ele>1598.48</ele>
        <time>2020-09-13T11:39:21Z</time>
      </trkpt>
      <trkpt lat="43.84392" lon="6.61497">
        <ele>1600.8</ele>
        <time>2020-09-13T11:41:20Z</time>
      </trkpt>
      <trkpt lat="43.8441" lon="6.6149">
        <ele>1601.48</ele>
        <time>2020-09-13T11:41:45Z</time>
      </trkpt>
      <trkpt lat="43.84428" lon="6.61481">
        <ele>1601.96</ele>
        <time>2020-09-13T11:42:09Z</time>
      </trkpt>
      <trkpt lat="43.84445" lon="6.61472">
        <ele>1602.63</ele>
        <time>2020-09-13T11:42:55Z</time>
      </trkpt>
      <trkpt lat="43.84458" lon="6.61455">
        <ele>1603.55</ele>
        <time>2020-09-13T11:43:51Z</time>
      </trkpt>
      <trkpt lat="43.84476" lon="6.61453">
        <ele>1604.3</ele>
        <time>2020-09-13T11:44:30Z</time>
      </trkpt>
      <trkpt lat="43.84487" lon="6.61432">
        <ele>1604.79</ele>
        <time>2020-09-13T11:44:50Z</time>
      </trkpt>
      <trkpt lat="43.84504" lon="6.61427">
        <ele>1605.33</ele>
        <time>2020-09-13T11:45:11Z</time>
      </trkpt>
      <trkpt lat="43.84522" lon="6.6142">
        <ele>1606.21</ele>
        <time>2020-09-13T11:45:41Z</time>
      </trkpt>
      <trkpt lat="43.84539" lon="6.6141">
        <ele>1606.9</ele>
        <time>2020-09-13T11:46:03Z</time>
      </trkpt>
      <trkpt lat="43.84548" lon="6.61388">
        <ele>1607.73</ele>
        <time>2020-09-13T11:46:25Z</time>
      </trkpt>
      <trkpt lat="43.84559" lon="6.61366">
        <ele>1609.42</ele>
        <time>2020-09-13T11:47:10Z</time>
      </trkpt>
      <trkpt lat="43.84576" lon="6.61354">
        <ele>1610.44</ele>
        <time>2020-09-13T11:47:30Z</time>
      </trkpt>
      <trkpt lat="43.84588" lon="6.61334">
        <ele>1612.25</ele>
        <time>2020-09-13T11:47:57Z</time>
      </trkpt>
      <trkpt lat="43.84594" lon="6.61311">
        <ele>1625.16</ele>
        <time>2020-09-13T12:14:57Z</time>
      </trkpt>
      <trkpt lat="43.84601" lon="6.61335">
        <ele>1631.95</ele>
        <time>2020-09-13T12:31:55Z</time>
      </trkpt>
      <trkpt lat="43.84594" lon="6.61311">
        <ele>1645.32</ele>
        <time>2020-09-13T12:49:22Z</time>
      </trkpt>
      <trkpt lat="43.84606" lon="6.61293">
        <ele>1645.79</ele>
        <time>2020-09-13T12:50:07Z</time>
      </trkpt>
      <trkpt lat="43.84617" lon="6.61273">
        <ele>1646.06</ele>
        <time>2020-09-13T12:50:42Z</time>
      </trkpt>
      <trkpt lat="43.84629" lon="6.61253">
        <ele>1646.28</ele>
        <time>2020-09-13T12:51:09Z</time>
      </trkpt>
      <trkpt lat="43.84639" lon="6.61233">
        <ele>1646.62</ele>
        <time>2020-09-13T12:51:40Z</time>
      </trkpt>
      <trkpt lat="43.84649" lon="6.6121">
        <ele>1646.87</ele>
        <time>2020-09-13T12:52:13Z</time>
      </trkpt>
      <trkpt lat="43.8466" lon="6.61189">
        <ele>1647.25</ele>
        <time>2020-09-13T12:53:03Z</time>
      </trkpt>
      <trkpt lat="43.8467" lon="6.61168">
        <ele>1647.62</ele>
        <time>2020-09-13T12:53:37Z</time>
      </trkpt>
      <trkpt lat="43.84676" lon="6.61143">
        <ele>1648.34</ele>
        <time>2020-09-13T12:54:17Z</time>
      </trkpt>
      <trkpt lat="43.84685" lon="6.61122">
        <ele>1649.35</ele>
        <time>2020-09-13T12:54:55Z</time>
      </trkpt>
      <trkpt lat="43.84692" lon="6.61098">
        <ele>1650.58</ele>
        <time>2020-09-13T12:55:27Z</time>
      </trkpt>
      <trkpt lat="43.84692" lon="6.61072">
        <ele>1652.1</ele>
        <time>2020-09-13T12:56:11Z</time>
      </trkpt>
      <trkpt lat="43.84679" lon="6.61054">
        <ele>1654.84</ele>
        <time>2020-09-13T12:56:59Z</time>
      </trkpt>
      <trkpt lat="43.84661" lon="6.61048">
        <ele>1657.7</ele>
        <time>2020-09-13T12:57:32Z</time>
      </trkpt>
      <trkpt lat="43.84643" lon="6.61038">
        <ele>1659.2</ele>
        <time>2020-09-13T12:57:46Z</time>
      </trkpt>
      <trkpt lat="43.84626" lon="6.61027">
        <ele>1664.75</ele>
        <time>2020-09-13T12:58:44Z</time>
      </trkpt>
      <trkpt lat="43.84627" lon="6.61001">
        <ele>1668.52</ele>
        <time>2020-09-13T12:59:12Z</time>
      </trkpt>
      <trkpt lat="43.84619" lon="6.60978">
        <ele>1676.13</ele>
        <time>2020-09-13T13:00:01Z</time>
      </trkpt>
      <trkpt lat="43.84601" lon="6.60974">
        <ele>1681.18</ele>
        <time>2020-09-13T13:00:31Z</time>
      </trkpt>
      <trkpt lat="43.84583" lon="6.60976">
        <ele>1688.1</ele>
        <time>2020-09-13T13:01:09Z</time>
      </trkpt>
      <trkpt lat="43.84574" lon="6.60954">
        <ele>1703.14</ele>
        <time>2020-09-13T13:02:22Z</time>
      </trkpt>
      <trkpt lat="43.84558" lon="6.60942">
        <ele>1706.52</ele>
        <time>2020-09-13T13:02:39Z</time>
      </trkpt>
      <trkpt lat="43.84545" lon="6.60924">
        <ele>1713.45</ele>
        <time>2020-09-13T13:03:27Z</time>
      </trkpt>
      <trkpt lat="43.84545" lon="6.60898">
        <ele>1715.81</ele>
        <time>2020-09-13T13:03:50Z</time>
      </trkpt>
      <trkpt lat="43.84561" lon="6.60881">
        <ele>1718.97</ele>
        <time>2020-09-13T13:04:22Z</time>
      </trkpt>
      <trkpt lat="43.84561" lon="6.60854">
        <ele>1723.88</ele>
        <time>2020-09-13T13:05:01Z</time>
      </trkpt>
      <trkpt lat="43.84559" lon="6.60828">
        <ele>1727.63</ele>
        <time>2020-09-13T13:05:31Z</time>
      </trkpt>
      <trkpt lat="43.84555" lon="6.60803">
        <ele>1731.54</ele>
        <time>2020-09-13T13:06:02Z</time>
      </trkpt>
      <trkpt lat="43.84556" lon="6.60778">
        <ele>1735.67</ele>
        <time>2020-09-13T13:06:30Z</time>
      </trkpt>
      <trkpt lat="43.84556" lon="6.60752">
        <ele>1742.98</ele>
        <time>2020-09-13T13:07:14Z</time>
      </trkpt>
      <trkpt lat="43.84555" lon="6.60727">
        <ele>1748.79</ele>
        <time>2020-09-13T13:07:51Z</time>
      </trkpt>
      <trkpt lat="43.84559" lon="6.60702">
        <ele>1753.11</ele>
        <time>2020-09-13T13:08:23Z</time>
      </trkpt>
      <trkpt lat="43.8455" lon="6.6068">
        <ele>1760.6</ele>
        <time>2020-09-13T13:09:23Z</time>
      </trkpt>
      <trkpt lat="43.84534" lon="6.60667">
        <ele>1765.26</ele>
        <time>2020-09-13T13:10:01Z</time>
      </trkpt>
      <trkpt lat="43.84516" lon="6.60669">
        <ele>1772.6</ele>
        <time>2020-09-13T13:10:54Z</time>
      </trkpt>
      <trkpt lat="43.84498" lon="6.6067">
        <ele>1780.46</ele>
        <time>2020-09-13T13:11:34Z</time>
      </trkpt>
      <trkpt lat="43.84481" lon="6.6066">
        <ele>1789.23</ele>
        <time>2020-09-13T13:12:20Z</time>
      </trkpt>
      <trkpt lat="43.84469" lon="6.6064">
        <ele>1794.68</ele>
        <time>2020-09-13T13:12:58Z</time>
      </trkpt>
      <trkpt lat="43.84462" lon="6.60617">
        <ele>1799.02</ele>
        <time>2020-09-13T13:13:36Z</time>
      </trkpt>
      <trkpt lat="43.84444" lon="6.60609">
        <ele>1802.06</ele>
        <time>2020-09-13T13:14:07Z</time>
      </trkpt>
      <trkpt lat="43.84441" lon="6.60584">
        <ele>1803.93</ele>
        <time>2020-09-13T13:14:28Z</time>
      </trkpt>
      <trkpt lat="43.8444" lon="6.60559">
        <ele>1807.69</ele>
        <time>2020-09-13T13:15:01Z</time>
      </trkpt>
      <trkpt lat="43.8444" lon="6.60534">
        <ele>1810.86</ele>
        <time>2020-09-13T13:15:21Z</time>
      </trkpt>
      <trkpt lat="43.84444" lon="6.60509">
        <ele>1815.73</ele>
        <time>2020-09-13T13:15:47Z</time>
      </trkpt>
      <trkpt lat="43.84446" lon="6.60484">
        <ele>1820.01</ele>
        <time>2020-09-13T13:16:10Z</time>
      </trkpt>
      <trkpt lat="43.84448" lon="6.60458">
        <ele>1824.26</ele>
        <time>2020-09-13T13:16:31Z</time>
      </trkpt>
      <trkpt lat="43.8445" lon="6.60432">
        <ele>1828.01</ele>
        <time>2020-09-13T13:16:52Z</time>
      </trkpt>
      <trkpt lat="43.84451" lon="6.60406">
        <ele>1831.42</ele>
        <time>2020-09-13T13:17:16Z</time>
      </trkpt>
      <trkpt lat="43.84455" lon="6.60382">
        <ele>1834.3</ele>
        <time>2020-09-13T13:17:41Z</time>
      </trkpt>
      <trkpt lat="43.84455" lon="6.60356">
        <ele>1836.51</ele>
        <time>2020-09-13T13:18:03Z</time>
      </trkpt>
      <trkpt lat="43.84448" lon="6.60333">
        <ele>1838.51</ele>
        <time>2020-09-13T13:18:27Z</time>
      </trkpt>
      <trkpt lat="43.84443" lon="6.60308">
        <ele>1840.09</ele>
        <time>2020-09-13T13:18:49Z</time>
      </trkpt>
      <trkpt lat="43.84446" lon="6.60282">
        <ele>1841.35</ele>
        <time>2020-09-13T13:19:08Z</time>
      </trkpt>
      <trkpt lat="43.84447" lon="6.60257">
        <ele>1843.19</ele>
        <time>2020-09-13T13:19:35Z</time>
      </trkpt>
      <trkpt lat="43.84457" lon="6.60236">
        <ele>1845.2</ele>
        <time>2020-09-13T13:19:58Z</time>
      </trkpt>
      <trkpt lat="43.84469" lon="6.60215">
        <ele>1847.49</ele>
        <time>2020-09-13T13:20:21Z</time>
      </trkpt>
      <trkpt lat="43.84485" lon="6.60226">
        <ele>1877.19</ele>
        <time>2020-09-13T13:38:22Z</time>
      </trkpt>
      <trkpt lat="43.84495" lon="6.60247">
        <ele>1877.97</ele>
        <time>2020-09-13T13:38:50Z</time>
      </trkpt>
      <trkpt lat="43.84508" lon="6.60267">
        <ele>1878.53</ele>
        <time>2020-09-13T13:39:17Z</time>
      </trkpt>
      <trkpt lat="43.84521" lon="6.60286">
        <ele>1878.93</ele>
        <time>2020-09-13T13:39:43Z</time>
      </trkpt>
      <trkpt lat="43.84533" lon="6.60305">
        <ele>1879.28</ele>
        <time>2020-09-13T13:40:12Z</time>
      </trkpt>
      <trkpt lat="43.84547" lon="6.60323">
        <ele>1879.44</ele>
        <time>2020-09-13T13:40:31Z</time>
      </trkpt>
      <trkpt lat="43.84557" lon="6.60344">
        <ele>1879.59</ele>
        <time>2020-09-13T13:40:54Z</time>
      </trkpt>
      <trkpt lat="43.84565" lon="6.60366">
        <ele>1879.64</ele>
        <time>2020-09-13T13:41:17Z</time>
      </trkpt>
      <trkpt lat="43.8458" lon="6.60381">
        <ele>1879.61</ele>
        <time>2020-09-13T13:41:38Z</time>
      </trkpt>
      <trkpt lat="43.84594" lon="6.60397">
        <ele>1879.49</ele>
        <time>2020-09-13T13:42:36Z</time>
      </trkpt>
      <trkpt lat="43.84612" lon="6.60402">
        <ele>1879.24</ele>
        <time>2020-09-13T13:43:37Z</time>
      </trkpt>
      <trkpt lat="43.84628" lon="6.60414">
        <ele>1879.04</ele>
        <time>2020-09-13T13:44:07Z</time>
      </trkpt>
      <trkpt lat="43.84644" lon="6.60428">
        <ele>1878.04</ele>
        <time>2020-09-13T13:45:59Z</time>
      </trkpt>
      <trkpt lat="43.84659" lon="6.60441">
        <ele>1877.4</ele>
        <time>2020-09-13T13:46:26Z</time>
      </trkpt>
      <trkpt lat="43.84671" lon="6.6046">
        <ele>1876.75</ele>
        <time>2020-09-13T13:46:50Z</time>
      </trkpt>
      <trkpt lat="43.84681" lon="6.60482">
        <ele>1875.65</ele>
        <time>2020-09-13T13:47:41Z</time>
      </trkpt>
      <trkpt lat="43.84683" lon="6.60507">
        <ele>1874.98</ele>
        <time>2020-09-13T13:48:08Z</time>
      </trkpt>
      <trkpt lat="43.84691" lon="6.6053">
        <ele>1874.48</ele>
        <time>2020-09-13T13:48:33Z</time>
      </trkpt>
      <trkpt lat="43.84701" lon="6.60551">
        <ele>1873.87</ele>
        <time>2020-09-13T13:49:04Z</time>
      </trkpt>
      <trkpt lat="43.84716" lon="6.60564">
        <ele>1872.53</ele>
        <time>2020-09-13T13:49:41Z</time>
      </trkpt>
      <trkpt lat="43.84731" lon="6.60581">
        <ele>1868.24</ele>
        <time>2020-09-13T13:50:36Z</time>
      </trkpt>
      <trkpt lat="43.84739" lon="6.60604">
        <ele>1863.91</ele>
        <time>2020-09-13T13:51:06Z</time>
      </trkpt>
      <trkpt lat="43.84735" lon="6.60629">
        <ele>1860.41</ele>
        <time>2020-09-13T13:51:36Z</time>
      </trkpt>
      <trkpt lat="43.84748" lon="6.60648">
        <ele>1855.12</ele>
        <time>2020-09-13T13:52:09Z</time>
      </trkpt>
      <trkpt lat="43.84752" lon="6.60673">
        <ele>1846.41</ele>
        <time>2020-09-13T13:52:54Z</time>
      </trkpt>
      <trkpt lat="43.84765" lon="6.60691">
        <ele>1837.02</ele>
        <time>2020-09-13T13:53:30Z</time>
      </trkpt>
      <trkpt lat="43.84773" lon="6.60713">
        <ele>1827.15</ele>
        <time>2020-09-13T13:54:09Z</time>
      </trkpt>
      <trkpt lat="43.84775" lon="6.60739">
        <ele>1816.35</ele>
        <time>2020-09-13T13:54:58Z</time>
      </trkpt>
      <trkpt lat="43.84791" lon="6.60752">
        <ele>1810.12</ele>
        <time>2020-09-13T13:55:38Z</time>
      </trkpt>
      <trkpt lat="43.84808" lon="6.6076">
        <ele>1804.79</ele>
        <time>2020-09-13T13:56:06Z</time>
      </trkpt>
      <trkpt lat="43.84816" lon="6.60784">
        <ele>1801.51</ele>
        <time>2020-09-13T13:56:25Z</time>
      </trkpt>
      <trkpt lat="43.84819" lon="6.60809">
        <ele>1797.14</ele>
        <time>2020-09-13T13:56:57Z</time>
      </trkpt>
      <trkpt lat="43.84827" lon="6.60832">
        <ele>1791.93</ele>
        <time>2020-09-13T13:57:40Z</time>
      </trkpt>
      <trkpt lat="43.84832" lon="6.60856">
        <ele>1787.94</ele>
        <time>2020-09-13T13:58:12Z</time>
      </trkpt>
      <trkpt lat="43.84845" lon="6.60874">
        <ele>1783.73</ele>
        <time>2020-09-13T13:58:47Z</time>
      </trkpt>
      <trkpt lat="43.84853" lon="6.60897">
        <ele>1778.49</ele>
        <time>2020-09-13T13:59:44Z</time>
      </trkpt>
      <trkpt lat="43.84867" lon="6.60913">
        <ele>1774.73</ele>
        <time>2020-09-13T14:00:18Z</time>
      </trkpt>
      <trkpt lat="43.84863" lon="6.60939">
        <ele>1772.25</ele>
        <time>2020-09-13T14:00:44Z</time>
      </trkpt>
      <trkpt lat="43.84856" lon="6.60962">
        <ele>1768.66</ele>
        <time>2020-09-13T14:01:22Z</time>
      </trkpt>
      <trkpt lat="43.84872" lon="6.60973">
        <ele>1765.68</ele>
        <time>2020-09-13T14:01:47Z</time>
      </trkpt>
      <trkpt lat="43.8487" lon="6.60998">
        <ele>1762.49</ele>
        <time>2020-09-13T14:02:08Z</time>
      </trkpt>
      <trkpt lat="43.84859" lon="6.61019">
        <ele>1759.26</ele>
        <time>2020-09-13T14:02:27Z</time>
      </trkpt>
      <trkpt lat="43.84851" lon="6.61042">
        <ele>1756.33</ele>
        <time>2020-09-13T14:02:44Z</time>
      </trkpt>
      <trkpt lat="43.84845" lon="6.61066">
        <ele>1752.66</ele>
        <time>2020-09-13T14:03:04Z</time>
      </trkpt>
      <trkpt lat="43.84845" lon="6.61092">
        <ele>1749.08</ele>
        <time>2020-09-13T14:03:26Z</time>
      </trkpt>
      <trkpt lat="43.84833" lon="6.61112">
        <ele>1744.21</ele>
        <time>2020-09-13T14:03:46Z</time>
      </trkpt>
      <trkpt lat="43.84833" lon="6.61138">
        <ele>1738.39</ele>
        <time>2020-09-13T14:04:08Z</time>
      </trkpt>
      <trkpt lat="43.84843" lon="6.61159">
        <ele>1732.49</ele>
        <time>2020-09-13T14:04:29Z</time>
      </trkpt>
      <trkpt lat="43.84851" lon="6.61182">
        <ele>1727.99</ele>
        <time>2020-09-13T14:04:51Z</time>
      </trkpt>
      <trkpt lat="43.84859" lon="6.61205">
        <ele>1724.9</ele>
        <time>2020-09-13T14:05:10Z</time>
      </trkpt>
      <trkpt lat="43.84868" lon="6.61226">
        <ele>1721.92</ele>
        <time>2020-09-13T14:05:33Z</time>
      </trkpt>
      <trkpt lat="43.84883" lon="6.61241">
        <ele>1719.06</ele>
        <time>2020-09-13T14:05:59Z</time>
      </trkpt>
      <trkpt lat="43.84899" lon="6.61253">
        <ele>1716.82</ele>
        <time>2020-09-13T14:06:18Z</time>
      </trkpt>
      <trkpt lat="43.84913" lon="6.6127">
        <ele>1714.49</ele>
        <time>2020-09-13T14:06:45Z</time>
      </trkpt>
      <trkpt lat="43.84925" lon="6.61289">
        <ele>1712.7</ele>
        <time>2020-09-13T14:07:08Z</time>
      </trkpt>
      <trkpt lat="43.84939" lon="6.61304">
        <ele>1710.91</ele>
        <time>2020-09-13T14:07:35Z</time>
      </trkpt>
      <trkpt lat="43.8495" lon="6.61324">
        <ele>1709.35</ele>
        <time>2020-09-13T14:08:21Z</time>
      </trkpt>
      <trkpt lat="43.84965" lon="6.6134">
        <ele>1707.51</ele>
        <time>2020-09-13T14:09:05Z</time>
      </trkpt>
      <trkpt lat="43.84982" lon="6.61351">
        <ele>1706.33</ele>
        <time>2020-09-13T14:09:35Z</time>
      </trkpt>
      <trkpt lat="43.84994" lon="6.6137">
        <ele>1704.71</ele>
        <time>2020-09-13T14:10:11Z</time>
      </trkpt>
      <trkpt lat="43.8501" lon="6.61382">
        <ele>1703.33</ele>
        <time>2020-09-13T14:10:43Z</time>
      </trkpt>
      <trkpt lat="43.85018" lon="6.61405">
        <ele>1701.84</ele>
        <time>2020-09-13T14:11:15Z</time>
      </trkpt>
      <trkpt lat="43.85028" lon="6.61426">
        <ele>1700.88</ele>
        <time>2020-09-13T14:11:40Z</time>
      </trkpt>
      <trkpt lat="43.85023" lon="6.6145">
        <ele>1698.73</ele>
        <time>2020-09-13T14:13:47Z</time>
      </trkpt>
      <trkpt lat="43.85016" lon="6.61474">
        <ele>1697.46</ele>
        <time>2020-09-13T14:14:19Z</time>
      </trkpt>
      <trkpt lat="43.85011" lon="6.61499">
        <ele>1696.58</ele>
        <time>2020-09-13T14:14:51Z</time>
      </trkpt>
      <trkpt lat="43.85009" lon="6.61524">
        <ele>1696.01</ele>
        <time>2020-09-13T14:15:19Z</time>
      </trkpt>
      <trkpt lat="43.85006" lon="6.61549">
        <ele>1695.62</ele>
        <time>2020-09-13T14:15:49Z</time>
      </trkpt>
      <trkpt lat="43.85007" lon="6.61575">
        <ele>1695.1</ele>
        <time>2020-09-13T14:16:30Z</time>
      </trkpt>
      <trkpt lat="43.85012" lon="6.61599">
        <ele>1694.57</ele>
        <time>2020-09-13T14:17:02Z</time>
      </trkpt>
      <trkpt lat="43.85014" lon="6.61625">
        <ele>1693.48</ele>
        <time>2020-09-13T14:17:39Z</time>
      </trkpt>
      <trkpt lat="43.85032" lon="6.6163">
        <ele>1691.63</ele>
        <time>2020-09-13T14:18:02Z</time>
      </trkpt>
      <trkpt lat="43.85048" lon="6.61643">
        <ele>1688.5</ele>
        <time>2020-09-13T14:18:24Z</time>
      </trkpt>
      <trkpt lat="43.85056" lon="6.61665">
        <ele>1678.29</ele>
        <time>2020-09-13T14:19:07Z</time>
      </trkpt>
      <trkpt lat="43.85048" lon="6.61688">
        <ele>1668.57</ele>
        <time>2020-09-13T14:19:50Z</time>
      </trkpt>
      <trkpt lat="43.85039" lon="6.6171">
        <ele>1657.65</ele>
        <time>2020-09-13T14:20:32Z</time>
      </trkpt>
      <trkpt lat="43.85034" lon="6.61735">
        <ele>1647.22</ele>
        <time>2020-09-13T14:21:07Z</time>
      </trkpt>
      <trkpt lat="43.85031" lon="6.61759">
        <ele>1640.07</ele>
        <time>2020-09-13T14:21:36Z</time>
      </trkpt>
      <trkpt lat="43.85034" lon="6.61784">
        <ele>1632.05</ele>
        <time>2020-09-13T14:22:32Z</time>
      </trkpt>
      <trkpt lat="43.85047" lon="6.61802">
        <ele>1625.65</ele>
        <time>2020-09-13T14:23:16Z</time>
      </trkpt>
      <trkpt lat="43.85066" lon="6.61801">
        <ele>1619.85</ele>
        <time>2020-09-13T14:24:26Z</time>
      </trkpt>
      <trkpt lat="43.85082" lon="6.61812">
        <ele>1616.28</ele>
        <time>2020-09-13T14:25:17Z</time>
      </trkpt>
      <trkpt lat="43.85101" lon="6.61815">
        <ele>1614.03</ele>
        <time>2020-09-13T14:25:49Z</time>
      </trkpt>
      <trkpt lat="43.85117" lon="6.61827">
        <ele>1612.67</ele>
        <time>2020-09-13T14:26:03Z</time>
      </trkpt>
      <trkpt lat="43.85134" lon="6.61838">
        <ele>1608.49</ele>
        <time>2020-09-13T14:26:45Z</time>
      </trkpt>
      <trkpt lat="43.85139" lon="6.61864">
        <ele>1602.95</ele>
        <time>2020-09-13T14:27:22Z</time>
      </trkpt>
      <trkpt lat="43.85154" lon="6.6188">
        <ele>1591.77</ele>
        <time>2020-09-13T14:28:07Z</time>
      </trkpt>
      <trkpt lat="43.85163" lon="6.61902">
        <ele>1584.5</ele>
        <time>2020-09-13T14:28:41Z</time>
      </trkpt>
      <trkpt lat="43.85181" lon="6.61909">
        <ele>1578.58</ele>
        <time>2020-09-13T14:29:07Z</time>
      </trkpt>
      <trkpt lat="43.85187" lon="6.61933">
        <ele>1574.18</ele>
        <time>2020-09-13T14:29:30Z</time>
      </trkpt>
      <trkpt lat="43.85204" lon="6.61944">
        <ele>1568.44</ele>
        <time>2020-09-13T14:30:06Z</time>
      </trkpt>
      <trkpt lat="43.85218" lon="6.61959">
        <ele>1560.89</ele>
        <time>2020-09-13T14:30:59Z</time>
      </trkpt>
      <trkpt lat="43.85235" lon="6.61969">
        <ele>1552.9</ele>
        <time>2020-09-13T14:31:51Z</time>
      </trkpt>
      <trkpt lat="43.85253" lon="6.61976">
        <ele>1546.34</ele>
        <time>2020-09-13T14:32:31Z</time>
      </trkpt>
      <trkpt lat="43.85252" lon="6.62001">
        <ele>1541.48</ele>
        <time>2020-09-13T14:33:06Z</time>
      </trkpt>
      <trkpt lat="43.8527" lon="6.61997">
        <ele>1535.47</ele>
        <time>2020-09-13T14:34:03Z</time>
      </trkpt>
      <trkpt lat="43.85281" lon="6.62017">
        <ele>1527.45</ele>
        <time>2020-09-13T14:35:10Z</time>
      </trkpt>
      <trkpt lat="43.85296" lon="6.62032">
        <ele>1516.23</ele>
        <time>2020-09-13T14:37:15Z</time>
      </trkpt>
      <trkpt lat="43.8531" lon="6.6205">
        <ele>1511.14</ele>
        <time>2020-09-13T14:38:03Z</time>
      </trkpt>
      <trkpt lat="43.85299" lon="6.62071">
        <ele>1507.45</ele>
        <time>2020-09-13T14:38:40Z</time>
      </trkpt>
      <trkpt lat="43.85299" lon="6.62096">
        <ele>1503.79</ele>
        <time>2020-09-13T14:39:19Z</time>
      </trkpt>
      <trkpt lat="43.85305" lon="6.6212">
        <ele>1489.1</ele>
        <time>2020-09-13T14:41:51Z</time>
      </trkpt>
      <trkpt lat="43.85301" lon="6.62145">
        <ele>1484.53</ele>
        <time>2020-09-13T14:42:32Z</time>
      </trkpt>
      <trkpt lat="43.85301" lon="6.62171">
        <ele>1478.69</ele>
        <time>2020-09-13T14:43:24Z</time>
      </trkpt>
      <trkpt lat="43.85299" lon="6.62196">
        <ele>1473.15</ele>
        <time>2020-09-13T14:44:12Z</time>
      </trkpt>
      <trkpt lat="43.85297" lon="6.62221">
        <ele>1469.2</ele>
        <time>2020-09-13T14:44:49Z</time>
      </trkpt>
      <trkpt lat="43.85303" lon="6.62245">
        <ele>1462.47</ele>
        <time>2020-09-13T14:45:31Z</time>
      </trkpt>
      <trkpt lat="43.85309" lon="6.6227">
        <ele>1458.97</ele>
        <time>2020-09-13T14:45:55Z</time>
      </trkpt>
      <trkpt lat="43.85322" lon="6.6229">
        <ele>1453.74</ele>
        <time>2020-09-13T14:46:22Z</time>
      </trkpt>
      <trkpt lat="43.85324" lon="6.62316">
        <ele>1447.04</ele>
        <time>2020-09-13T14:46:54Z</time>
      </trkpt>
      <trkpt lat="43.85327" lon="6.62341">
        <ele>1440.69</ele>
        <time>2020-09-13T14:47:26Z</time>
      </trkpt>
      <trkpt lat="43.85326" lon="6.62367">
        <ele>1434.21</ele>
        <time>2020-09-13T14:48:01Z</time>
      </trkpt>
      <trkpt lat="43.85328" lon="6.62392">
        <ele>1428.78</ele>
        <time>2020-09-13T14:48:37Z</time>
      </trkpt>
      <trkpt lat="43.8533" lon="6.62417">
        <ele>1423.31</ele>
        <time>2020-09-13T14:49:11Z</time>
      </trkpt>
      <trkpt lat="43.85324" lon="6.62441">
        <ele>1414.52</ele>
        <time>2020-09-13T14:50:03Z</time>
      </trkpt>
      <trkpt lat="43.8531" lon="6.62458">
        <ele>1406.53</ele>
        <time>2020-09-13T14:50:43Z</time>
      </trkpt>
      <trkpt lat="43.85312" lon="6.62485">
        <ele>1355.87</ele>
        <time>2020-09-13T15:04:24Z</time>
      </trkpt>
      <trkpt lat="43.85325" lon="6.62504">
        <ele>1353.09</ele>
        <time>2020-09-13T15:05:29Z</time>
      </trkpt>
      <trkpt lat="43.85332" lon="6.62528">
        <ele>1352.04</ele>
        <time>2020-09-13T15:05:56Z</time>
      </trkpt>
      <trkpt lat="43.85337" lon="6.62553">
        <ele>1350.83</ele>
        <time>2020-09-13T15:06:29Z</time>
      </trkpt>
      <trkpt lat="43.85336" lon="6.6258">
        <ele>1349.73</ele>
        <time>2020-09-13T15:07:00Z</time>
      </trkpt>
      <trkpt lat="43.85345" lon="6.62603">
        <ele>1348.29</ele>
        <time>2020-09-13T15:07:42Z</time>
      </trkpt>
      <trkpt lat="43.85352" lon="6.62626">
        <ele>1347.48</ele>
        <time>2020-09-13T15:08:07Z</time>
      </trkpt>
      <trkpt lat="43.85354" lon="6.62651">
        <ele>1346.43</ele>
        <time>2020-09-13T15:08:35Z</time>
      </trkpt>
      <trkpt lat="43.85349" lon="6.62676">
        <ele>1345.19</ele>
        <time>2020-09-13T15:09:08Z</time>
      </trkpt>
      <trkpt lat="43.8536" lon="6.62696">
        <ele>1343.83</ele>
        <time>2020-09-13T15:09:55Z</time>
      </trkpt>
      <trkpt lat="43.85371" lon="6.62717">
        <ele>1343.46</ele>
        <time>2020-09-13T15:10:10Z</time>
      </trkpt>
      <trkpt lat="43.85377" lon="6.62741">
        <ele>1342.77</ele>
        <time>2020-09-13T15:10:34Z</time>
      </trkpt>
      <trkpt lat="43.85382" lon="6.62766">
        <ele>1341.93</ele>
        <time>2020-09-13T15:11:13Z</time>
      </trkpt>
      <trkpt lat="43.85394" lon="6.62786">
        <ele>1341.04</ele>
        <time>2020-09-13T15:11:51Z</time>
      </trkpt>
      <trkpt lat="43.85411" lon="6.62801">
        <ele>1340.51</ele>
        <time>2020-09-13T15:12:06Z</time>
      </trkpt>
      <trkpt lat="43.85422" lon="6.6282">
        <ele>1339.82</ele>
        <time>2020-09-13T15:12:36Z</time>
      </trkpt>
      <trkpt lat="43.85431" lon="6.62844">
        <ele>1328.81</ele>
        <time>2020-09-13T15:18:49Z</time>
      </trkpt>
      <trkpt lat="43.85445" lon="6.6286">
        <ele>1325.53</ele>
        <time>2020-09-13T15:19:45Z</time>
      </trkpt>
      <trkpt lat="43.8546" lon="6.62876">
        <ele>1323.86</ele>
        <time>2020-09-13T15:20:07Z</time>
      </trkpt>
      <trkpt lat="43.85457" lon="6.62901">
        <ele>1321.94</ele>
        <time>2020-09-13T15:20:42Z</time>
      </trkpt>
      <trkpt lat="43.85469" lon="6.62921">
        <ele>1319.62</ele>
        <time>2020-09-13T15:21:25Z</time>
      </trkpt>
      <trkpt lat="43.85475" lon="6.62945">
        <ele>1317.99</ele>
        <time>2020-09-13T15:22:00Z</time>
      </trkpt>
      <trkpt lat="43.85482" lon="6.62968">
        <ele>1315.6</ele>
        <time>2020-09-13T15:22:39Z</time>
      </trkpt>
      <trkpt lat="43.85482" lon="6.62994">
        <ele>1313.27</ele>
        <time>2020-09-13T15:23:08Z</time>
      </trkpt>
      <trkpt lat="43.85488" lon="6.63017">
        <ele>1310.51</ele>
        <time>2020-09-13T15:23:34Z</time>
      </trkpt>
      <trkpt lat="43.85494" lon="6.63042">
        <ele>1305.98</ele>
        <time>2020-09-13T15:24:00Z</time>
      </trkpt>
      <trkpt lat="43.85481" lon="6.6306">
        <ele>1299.52</ele>
        <time>2020-09-13T15:24:31Z</time>
      </trkpt>
      <trkpt lat="43.85479" lon="6.63085">
        <ele>1294.98</ele>
        <time>2020-09-13T15:24:58Z</time>
      </trkpt>
      <trkpt lat="43.85471" lon="6.63107">
        <ele>1291.23</ele>
        <time>2020-09-13T15:25:25Z</time>
      </trkpt>
      <trkpt lat="43.85465" lon="6.63131">
        <ele>1287.93</ele>
        <time>2020-09-13T15:25:52Z</time>
      </trkpt>
      <trkpt lat="43.85455" lon="6.63153">
        <ele>1284.12</ele>
        <time>2020-09-13T15:26:23Z</time>
      </trkpt>
      <trkpt lat="43.85454" lon="6.63178">
        <ele>1278.92</ele>
        <time>2020-09-13T15:26:56Z</time>
      </trkpt>
      <trkpt lat="43.85452" lon="6.63203">
        <ele>1274.5</ele>
        <time>2020-09-13T15:27:16Z</time>
      </trkpt>
      <trkpt lat="43.85456" lon="6.63229">
        <ele>1270.13</ele>
        <time>2020-09-13T15:27:39Z</time>
      </trkpt>
      <trkpt lat="43.8546" lon="6.63255">
        <ele>1265.25</ele>
        <time>2020-09-13T15:28:12Z</time>
      </trkpt>
      <trkpt lat="43.85459" lon="6.63281">
        <ele>1261.06</ele>
        <time>2020-09-13T15:28:34Z</time>
      </trkpt>
      <trkpt lat="43.85449" lon="6.63302">
        <ele>1254.4</ele>
        <time>2020-09-13T15:29:15Z</time>
      </trkpt>
      <trkpt lat="43.85439" lon="6.63324">
        <ele>1249.88</ele>
        <time>2020-09-13T15:29:40Z</time>
      </trkpt>
      <trkpt lat="43.85437" lon="6.63349">
        <ele>1245.05</ele>
        <time>2020-09-13T15:30:08Z</time>
      </trkpt>
      <trkpt lat="43.8544" lon="6.63373">
        <ele>1238.46</ele>
        <time>2020-09-13T15:30:41Z</time>
      </trkpt>
      <trkpt lat="43.85439" lon="6.63398">
        <ele>1232.65</ele>
        <time>2020-09-13T15:31:08Z</time>
      </trkpt>
      <trkpt lat="43.85446" lon="6.63422">
        <ele>1227.81</ele>
        <time>2020-09-13T15:31:34Z</time>
      </trkpt>
      <trkpt lat="43.85457" lon="6.63442">
        <ele>1217.71</ele>
        <time>2020-09-13T15:33:06Z</time>
      </trkpt>
      <trkpt lat="43.85475" lon="6.63452">
        <ele>1210.35</ele>
        <time>2020-09-13T15:33:49Z</time>
      </trkpt>
      <trkpt lat="43.85492" lon="6.63459">
        <ele>1206.71</ele>
        <time>2020-09-13T15:34:08Z</time>
      </trkpt>
      <trkpt lat="43.85509" lon="6.63468">
        <ele>1203.92</ele>
        <time>2020-09-13T15:34:24Z</time>
      </trkpt>
      <trkpt lat="43.85506" lon="6.63494">
        <ele>1198.48</ele>
        <time>2020-09-13T15:34:52Z</time>
      </trkpt>
      <trkpt lat="43.85493" lon="6.63512">
        <ele>1194.62</ele>
        <time>2020-09-13T15:35:12Z</time>
      </trkpt>
      <trkpt lat="43.85482" lon="6.63534">
        <ele>1189.84</ele>
        <time>2020-09-13T15:35:41Z</time>
      </trkpt>
      <trkpt lat="43.85479" lon="6.6356">
        <ele>1185.22</ele>
        <time>2020-09-13T15:36:21Z</time>
      </trkpt>
      <trkpt lat="43.85471" lon="6.63583">
        <ele>1181.44</ele>
        <time>2020-09-13T15:36:57Z</time>
      </trkpt>
      <trkpt lat="43.8548" lon="6.63606">
        <ele>1179.13</ele>
        <time>2020-09-13T15:37:16Z</time>
      </trkpt>
      <trkpt lat="43.85491" lon="6.63626">
        <ele>1176</ele>
        <time>2020-09-13T15:37:39Z</time>
      </trkpt>
      <trkpt lat="43.85505" lon="6.63643">
        <ele>1173.35</ele>
        <time>2020-09-13T15:37:57Z</time>
      </trkpt>
      <trkpt lat="43.85515" lon="6.63665">
        <ele>1168.02</ele>
        <time>2020-09-13T15:39:06Z</time>
      </trkpt>
      <trkpt lat="43.85516" lon="6.63691">
        <ele>1164.96</ele>
        <time>2020-09-13T15:39:23Z</time>
      </trkpt>
      <trkpt lat="43.85516" lon="6.63717">
        <ele>1161.53</ele>
        <time>2020-09-13T15:39:44Z</time>
      </trkpt>
      <trkpt lat="43.85513" lon="6.63742">
        <ele>1158.06</ele>
        <time>2020-09-13T15:40:09Z</time>
      </trkpt>
      <trkpt lat="43.85514" lon="6.63768">
        <ele>1155.75</ele>
        <time>2020-09-13T15:40:28Z</time>
      </trkpt>
      <trkpt lat="43.85517" lon="6.63793">
        <ele>1153.91</ele>
        <time>2020-09-13T15:40:46Z</time>
      </trkpt>
      <trkpt lat="43.85522" lon="6.63817">
        <ele>1152.28</ele>
        <time>2020-09-13T15:41:03Z</time>
      </trkpt>
      <trkpt lat="43.85523" lon="6.63843">
        <ele>1150.73</ele>
        <time>2020-09-13T15:41:21Z</time>
      </trkpt>
      <trkpt lat="43.85527" lon="6.63868">
        <ele>1149.18</ele>
        <time>2020-09-13T15:41:40Z</time>
      </trkpt>
      <trkpt lat="43.85527" lon="6.63892">
        <ele>1148.07</ele>
        <time>2020-09-13T15:41:56Z</time>
      </trkpt>
      <trkpt lat="43.8553" lon="6.63918">
        <ele>1146.85</ele>
        <time>2020-09-13T15:42:14Z</time>
      </trkpt>
      <trkpt lat="43.85532" lon="6.63944">
        <ele>1145.73</ele>
        <time>2020-09-13T15:42:31Z</time>
      </trkpt>
      <trkpt lat="43.85535" lon="6.6397">
        <ele>1144.77</ele>
        <time>2020-09-13T15:42:48Z</time>
      </trkpt>
      <trkpt lat="43.85534" lon="6.63995">
        <ele>1143.52</ele>
        <time>2020-09-13T15:43:19Z</time>
      </trkpt>
      <trkpt lat="43.85528" lon="6.6402">
        <ele>1142.89</ele>
        <time>2020-09-13T15:43:37Z</time>
      </trkpt>
      <trkpt lat="43.85522" lon="6.64045">
        <ele>1142.33</ele>
        <time>2020-09-13T15:43:57Z</time>
      </trkpt>
      <trkpt lat="43.85507" lon="6.64062">
        <ele>1141.88</ele>
        <time>2020-09-13T15:44:14Z</time>
      </trkpt>
      <trkpt lat="43.85491" lon="6.64076">
        <ele>1141.41</ele>
        <time>2020-09-13T15:44:32Z</time>
      </trkpt>
      <trkpt lat="43.85477" lon="6.64093">
        <ele>1141.05</ele>
        <time>2020-09-13T15:44:48Z</time>
      </trkpt>
      <trkpt lat="43.85491" lon="6.64109">
        <ele>1140.41</ele>
        <time>2020-09-13T15:45:33Z</time>
      </trkpt>
      <trkpt lat="43.85509" lon="6.64115">
        <ele>1140.26</ele>
        <time>2020-09-13T15:45:49Z</time>
      </trkpt>
      <trkpt lat="43.85527" lon="6.64122">
        <ele>1140.09</ele>
        <time>2020-09-13T15:46:07Z</time>
      </trkpt>
      <trkpt lat="43.85544" lon="6.64129">
        <ele>1140.04</ele>
        <time>2020-09-13T15:46:28Z</time>
      </trkpt>
      <trkpt lat="43.8556" lon="6.64142">
        <ele>1140.07</ele>
        <time>2020-09-13T15:46:46Z</time>
      </trkpt>
      <trkpt lat="43.85572" lon="6.64162">
        <ele>1140.22</ele>
        <time>2020-09-13T15:47:11Z</time>
      </trkpt>
      <trkpt lat="43.85589" lon="6.64172">
        <ele>1140.37</ele>
        <time>2020-09-13T15:47:35Z</time>
      </trkpt>
      <trkpt lat="43.85604" lon="6.64187">
        <ele>1140.73</ele>
        <time>2020-09-13T15:48:09Z</time>
      </trkpt>
      <trkpt lat="43.85612" lon="6.6421">
        <ele>1141.96</ele>
        <time>2020-09-13T15:50:01Z</time>
      </trkpt>
      <trkpt lat="43.85624" lon="6.6423">
        <ele>1142.69</ele>
        <time>2020-09-13T15:50:48Z</time>
      </trkpt>
      <trkpt lat="43.85635" lon="6.6425">
        <ele>1142.86</ele>
        <time>2020-09-13T15:51:07Z</time>
      </trkpt>
      <trkpt lat="43.85647" lon="6.64269">
        <ele>1142.93</ele>
        <time>2020-09-13T15:51:22Z</time>
      </trkpt>
      <trkpt lat="43.85655" lon="6.64292">
        <ele>1143.01</ele>
        <time>2020-09-13T15:51:42Z</time>
      </trkpt>
      <trkpt lat="43.8566" lon="6.64316">
        <ele>1143.09</ele>
        <time>2020-09-13T15:51:59Z</time>
      </trkpt>
      <trkpt lat="43.85665" lon="6.6434">
        <ele>1143.19</ele>
        <time>2020-09-13T15:52:21Z</time>
      </trkpt>
      <trkpt lat="43.85669" lon="6.64365">
        <ele>1143.25</ele>
        <time>2020-09-13T15:52:40Z</time>
      </trkpt>
      <trkpt lat="43.85671" lon="6.6439">
        <ele>1143.29</ele>
        <time>2020-09-13T15:53:08Z</time>
      </trkpt>
      <trkpt lat="43.85671" lon="6.64416">
        <ele>1143.37</ele>
        <time>2020-09-13T15:53:35Z</time>
      </trkpt>
      <trkpt lat="43.8567" lon="6.64443">
        <ele>1143.56</ele>
        <time>2020-09-13T15:54:01Z</time>
      </trkpt>
      <trkpt lat="43.85669" lon="6.64468">
        <ele>1143.86</ele>
        <time>2020-09-13T15:54:28Z</time>
      </trkpt>
      <trkpt lat="43.85671" lon="6.64494">
        <ele>1144.07</ele>
        <time>2020-09-13T15:54:43Z</time>
      </trkpt>
      <trkpt lat="43.85668" lon="6.64519">
        <ele>1144.43</ele>
        <time>2020-09-13T15:55:03Z</time>
      </trkpt>
      <trkpt lat="43.8567" lon="6.64544">
        <ele>1144.82</ele>
        <time>2020-09-13T15:55:22Z</time>
      </trkpt>
      <trkpt lat="43.85671" lon="6.64569">
        <ele>1145.12</ele>
        <time>2020-09-13T15:55:37Z</time>
      </trkpt>
      <trkpt lat="43.85674" lon="6.64595">
        <ele>1145.59</ele>
        <time>2020-09-13T15:55:58Z</time>
      </trkpt>
      <trkpt lat="43.8567" lon="6.6462">
        <ele>1145.92</ele>
        <time>2020-09-13T15:56:12Z</time>
      </trkpt>
      <trkpt lat="43.85669" lon="6.64646">
        <ele>1146.36</ele>
        <time>2020-09-13T15:56:32Z</time>
      </trkpt>
      <trkpt lat="43.85665" lon="6.64671">
        <ele>1146.76</ele>
        <time>2020-09-13T15:56:55Z</time>
      </trkpt>
      <trkpt lat="43.85655" lon="6.64693">
        <ele>1147</ele>
        <time>2020-09-13T15:57:11Z</time>
      </trkpt>
      <trkpt lat="43.85649" lon="6.64717">
        <ele>1147.25</ele>
        <time>2020-09-13T15:57:29Z</time>
      </trkpt>
      <trkpt lat="43.85651" lon="6.64743">
        <ele>1147.48</ele>
        <time>2020-09-13T15:57:48Z</time>
      </trkpt>
      <trkpt lat="43.85655" lon="6.64768">
        <ele>1147.79</ele>
        <time>2020-09-13T15:58:13Z</time>
      </trkpt>
      <trkpt lat="43.85661" lon="6.64791">
        <ele>1148.24</ele>
        <time>2020-09-13T15:58:39Z</time>
      </trkpt>
      <trkpt lat="43.85673" lon="6.64813">
        <ele>1148.61</ele>
        <time>2020-09-13T15:59:01Z</time>
      </trkpt>
      <trkpt lat="43.85686" lon="6.6483">
        <ele>1148.83</ele>
        <time>2020-09-13T15:59:18Z</time>
      </trkpt>
      <trkpt lat="43.85693" lon="6.64855">
        <ele>1149.05</ele>
        <time>2020-09-13T15:59:36Z</time>
      </trkpt>
      <trkpt lat="43.85695" lon="6.6488">
        <ele>1149.2</ele>
        <time>2020-09-13T15:59:52Z</time>
      </trkpt>
      <trkpt lat="43.85699" lon="6.64904">
        <ele>1149.39</ele>
        <time>2020-09-13T16:00:18Z</time>
      </trkpt>
      <trkpt lat="43.85692" lon="6.64928">
        <ele>1149.64</ele>
        <time>2020-09-13T16:01:07Z</time>
      </trkpt>
      <trkpt lat="43.85691" lon="6.64953">
        <ele>1149.71</ele>
        <time>2020-09-13T16:01:28Z</time>
      </trkpt>
      <trkpt lat="43.85694" lon="6.64978">
        <ele>1149.77</ele>
        <time>2020-09-13T16:01:50Z</time>
      </trkpt>
      <trkpt lat="43.85698" lon="6.65004">
        <ele>1149.82</ele>
        <time>2020-09-13T16:02:22Z</time>
      </trkpt>
      <trkpt lat="43.857" lon="6.65029">
        <ele>1149.84</ele>
        <time>2020-09-13T16:02:42Z</time>
      </trkpt>
      <trkpt lat="43.85708" lon="6.65052">
        <ele>1149.84</ele>
        <time>2020-09-13T16:03:00Z</time>
      </trkpt>
      <trkpt lat="43.85711" lon="6.65077">
        <ele>1149.8</ele>
        <time>2020-09-13T16:03:21Z</time>
      </trkpt>
      <trkpt lat="43.85715" lon="6.65104">
        <ele>1149.71</ele>
        <time>2020-09-13T16:03:36Z</time>
      </trkpt>
      <trkpt lat="43.85701" lon="6.65122">
        <ele>1149.17</ele>
        <time>2020-09-13T16:04:12Z</time>
      </trkpt>
      <trkpt lat="43.85684" lon="6.65132">
        <ele>1148.82</ele>
        <time>2020-09-13T16:04:52Z</time>
      </trkpt>
      <trkpt lat="43.85668" lon="6.65146">
        <ele>1148.7</ele>
        <time>2020-09-13T16:05:13Z</time>
      </trkpt>
      <trkpt lat="43.8565" lon="6.65155">
        <ele>1148.65</ele>
        <time>2020-09-13T16:05:30Z</time>
      </trkpt>
      <trkpt lat="43.85632" lon="6.65161">
        <ele>1148.61</ele>
        <time>2020-09-13T16:05:47Z</time>
      </trkpt>
      <trkpt lat="43.85615" lon="6.65155">
        <ele>1148.49</ele>
        <time>2020-09-13T16:06:10Z</time>
      </trkpt>
      <trkpt lat="43.85606" lon="6.65132">
        <ele>1148.43</ele>
        <time>2020-09-13T16:06:30Z</time>
      </trkpt>
      <trkpt lat="43.85594" lon="6.65112">
        <ele>1148.45</ele>
        <time>2020-09-13T16:06:47Z</time>
      </trkpt>
      <trkpt lat="43.85578" lon="6.65098">
        <ele>1148.46</ele>
        <time>2020-09-13T16:07:03Z</time>
      </trkpt>
      <trkpt lat="43.85563" lon="6.65084">
        <ele>1148.42</ele>
        <time>2020-09-13T16:07:22Z</time>
      </trkpt>
      <trkpt lat="43.85547" lon="6.65074">
        <ele>1148.18</ele>
        <time>2020-09-13T16:07:42Z</time>
      </trkpt>
    </trkseg>
  </trk>
</gpx>